createdAt,value
2022-07-29T00:02:00.934Z,10.00
2022-07-29T00:05:03.752Z,8.75
2022-07-29T00:08:09.378Z,11.50
2022-07-29T00:11:14.432Z,10.25
2022-07-29T00:14:17.277Z,9.75
2022-07-29T00:17:19.512Z,8.50
2022-07-29T00:20:21.863Z,10.00
2022-07-29T00:23:23.899Z,6.25
2022-07-29T00:26:28.694Z,9.00
2022-07-29T00:29:34.078Z,10.75
2022-07-29T00:32:37.184Z,6.00
2022-07-29T00:35:44.991Z,8.25
2022-07-29T00:38:51.349Z,6.50
2022-07-29T00:41:53.480Z,7.50
2022-07-29T00:44:55.821Z,7.50
2022-07-29T00:47:57.879Z,8.75
2022-07-29T00:51:01.390Z,7.00
2022-07-29T00:54:04.677Z,10.00
2022-07-29T00:57:10.056Z,7.25
2022-07-29T01:00:15.738Z,9.50
2022-07-29T01:03:18.066Z,7.75
2022-07-29T01:06:20.298Z,8.00
2022-07-29T01:09:35.926Z,7.25
2022-07-29T01:12:48.082Z,8.75
2022-07-29T01:16:04.556Z,8.00
2022-07-29T01:19:35.311Z,8.25
2022-07-29T01:23:08.261Z,8.75
2022-07-29T01:26:28.437Z,8.00
2022-07-29T01:29:38.832Z,9.00
2022-07-29T01:32:42.034Z,7.25
2022-07-29T01:35:45.328Z,8.50
2022-07-29T01:38:55.678Z,7.75
2022-07-29T01:42:03.175Z,7.75
2022-07-29T01:45:34.004Z,8.00
2022-07-29T01:48:42.052Z,8.00
2022-07-29T01:52:01.865Z,8.00
2022-07-29T01:55:09.849Z,4.75
2022-07-29T01:58:13.341Z,4.75
2022-07-29T02:01:16.973Z,6.25
2022-07-29T02:04:28.965Z,7.50
2022-07-29T02:07:34.058Z,7.75
2022-07-29T02:10:36.808Z,5.25
2022-07-29T02:13:39.546Z,5.00
2022-07-29T02:16:42.120Z,7.00
2022-07-29T02:19:45.432Z,5.25
2022-07-29T02:22:48.375Z,6.25
2022-07-29T02:25:53.541Z,5.75
2022-07-29T02:28:57.822Z,5.50
2022-07-29T02:32:01.784Z,5.75
2022-07-29T02:35:04.866Z,6.50
2022-07-29T02:38:26.240Z,8.25
2022-07-29T02:41:51.547Z,5.25
2022-07-29T02:44:53.939Z,5.50
2022-07-29T02:47:59.444Z,7.75
2022-07-29T02:51:44.057Z,4.50
2022-07-29T02:55:20.648Z,5.00
2022-07-29T02:58:33.856Z,7.50
2022-07-29T03:01:36.639Z,6.50
2022-07-29T03:04:41.779Z,8.00
2022-07-29T03:07:47.747Z,6.75
2022-07-29T03:10:51.928Z,5.75
2022-07-29T03:13:54.041Z,6.75
2022-07-29T03:16:56.589Z,5.50
2022-07-29T03:19:59.825Z,7.00
2022-07-29T03:23:02.047Z,8.50
2022-07-29T03:26:04.198Z,5.75
2022-07-29T03:29:06.776Z,7.00
2022-07-29T03:32:09.187Z,6.75
2022-07-29T03:35:11.613Z,5.50
2022-07-29T03:38:13.666Z,7.00
2022-07-29T03:41:17.107Z,8.00
2022-07-29T03:44:25.929Z,6.00
2022-07-29T03:47:36.830Z,6.00
2022-07-29T03:50:52.318Z,5.00
2022-07-29T03:53:54.707Z,7.75
2022-07-29T03:57:00.822Z,5.00
2022-07-29T04:00:06.263Z,5.00
2022-07-29T04:03:10.750Z,7.75
2022-07-29T04:06:14.255Z,5.75
2022-07-29T04:09:16.257Z,5.00
2022-07-29T04:12:18.552Z,4.00
2022-07-29T04:15:20.813Z,4.00
2022-07-29T04:18:23.029Z,4.75
2022-07-29T04:21:25.309Z,5.00
2022-07-29T04:24:27.794Z,6.50
2022-07-29T04:27:29.858Z,5.00
2022-07-29T04:30:33.130Z,4.00
2022-07-29T04:33:35.133Z,9.00
2022-07-29T04:36:37.420Z,6.50
2022-07-29T04:39:39.436Z,4.00
2022-07-29T04:42:46.339Z,6.25
2022-07-29T04:45:49.392Z,5.00
2022-07-29T04:48:51.907Z,5.00
2022-07-29T04:51:54.383Z,6.00
2022-07-29T04:54:56.771Z,4.00
2022-07-29T04:57:58.989Z,5.50
2022-07-29T05:01:01.333Z,3.00
2022-07-29T05:04:03.518Z,3.00
2022-07-29T05:07:05.878Z,3.75
2022-07-29T05:10:08.662Z,4.00
2022-07-29T05:13:10.925Z,4.00
2022-07-29T05:16:14.296Z,3.75
2022-07-29T05:19:16.814Z,3.75
2022-07-29T05:22:20.073Z,2.50
2022-07-29T05:25:22.657Z,2.25
2022-07-29T05:28:24.608Z,3.00
2022-07-29T05:31:26.874Z,3.00
2022-07-29T05:34:29.206Z,3.50
2022-07-29T05:37:32.050Z,3.00
2022-07-29T05:40:35.141Z,2.25
2022-07-29T05:43:37.288Z,3.00
2022-07-29T05:46:39.456Z,3.25
2022-07-29T05:49:41.932Z,4.00
2022-07-29T05:52:44.010Z,4.00
2022-07-29T05:55:46.324Z,3.00
2022-07-29T05:58:48.358Z,4.50
2022-07-29T06:01:50.659Z,3.00
2022-07-29T06:04:52.856Z,3.00
2022-07-29T06:07:55.133Z,2.25
2022-07-29T06:10:57.228Z,2.00
2022-07-29T06:13:59.514Z,2.25
2022-07-29T06:17:01.664Z,3.50
2022-07-29T06:20:04.700Z,2.00
2022-07-29T06:23:06.994Z,2.50
2022-07-29T06:26:09.737Z,2.33
2022-07-29T06:29:12.038Z,2.00
2022-07-29T06:32:14.534Z,2.00
2022-07-29T06:38:42.073Z,3.00
2022-07-29T06:41:49.995Z,2.00
2022-07-29T06:44:52.293Z,2.00
2022-07-29T06:47:54.399Z,1.67
2022-07-29T06:50:56.673Z,2.67
2022-07-29T06:54:12.865Z,1.67
2022-07-29T06:57:15.257Z,2.00
2022-07-29T07:00:17.400Z,2.00
2022-07-29T07:03:20.176Z,3.00
2022-07-29T07:06:22.238Z,3.33
2022-07-29T07:09:24.563Z,1.67
2022-07-29T07:12:42.309Z,2.00
2022-07-29T07:15:46.358Z,1.67
2022-07-29T07:18:48.478Z,1.67
2022-07-29T07:21:50.739Z,3.00
2022-07-29T07:24:52.795Z,3.00
2022-07-29T07:27:55.387Z,2.00
2022-07-29T07:30:57.417Z,2.00
2022-07-29T07:34:00.059Z,2.00
2022-07-29T07:37:02.089Z,2.33
2022-07-29T07:40:05.533Z,1.00
2022-07-29T07:43:07.651Z,2.00
2022-07-29T07:46:10.067Z,3.00
2022-07-29T07:49:12.320Z,2.00
2022-07-29T07:52:19.572Z,2.33
2022-07-29T07:55:21.776Z,3.00
2022-07-29T07:58:24.006Z,2.67
2022-07-29T08:01:26.126Z,4.00
2022-07-29T08:04:29.480Z,1.67
2022-07-29T08:07:31.896Z,1.33
2022-07-29T08:10:53.113Z,3.00
2022-07-29T08:13:55.697Z,2.33
2022-07-29T08:16:58.259Z,1.33
2022-07-29T08:20:00.348Z,2.33
2022-07-29T08:23:03.755Z,1.67
2022-07-29T08:26:11.235Z,1.33
2022-07-29T08:29:18.350Z,2.33
2022-07-29T08:32:43.463Z,2.00
2022-07-29T08:35:44.095Z,2.67
2022-07-29T08:38:46.420Z,2.33
2022-07-29T08:41:57.411Z,2.00
2022-07-29T08:44:59.937Z,2.33
2022-07-29T08:48:02.247Z,2.33
2022-07-29T08:51:04.910Z,3.00
2022-07-29T08:54:09.594Z,2.00
2022-07-29T08:57:15.184Z,3.00
2022-07-29T09:00:19.399Z,2.00
2022-07-29T09:03:24.685Z,3.00
2022-07-29T09:06:32.409Z,2.67
2022-07-29T09:09:34.697Z,2.25
2022-07-29T09:12:38.155Z,2.00
2022-07-29T09:15:40.346Z,2.50
2022-07-29T09:18:44.877Z,1.50
2022-07-29T09:22:06.224Z,2.00
2022-07-29T09:25:09.091Z,2.50
2022-07-29T09:28:13.724Z,2.00
2022-07-29T09:31:16.244Z,3.00
2022-07-29T09:34:26.603Z,2.00
2022-07-29T09:37:30.105Z,2.33
2022-07-29T09:40:32.117Z,2.67
2022-07-29T09:43:35.096Z,2.33
2022-07-29T09:46:37.432Z,2.33
2022-07-29T09:49:59.418Z,3.33
2022-07-29T09:53:01.567Z,2.00
2022-07-29T09:56:05.232Z,2.67
2022-07-29T09:59:08.970Z,3.00
2022-07-29T10:02:20.319Z,1.67
2022-07-29T10:05:36.106Z,1.33
2022-07-29T10:08:39.314Z,2.00
2022-07-29T10:11:57.203Z,2.00
2022-07-29T10:14:59.490Z,1.67
2022-07-29T10:18:01.552Z,2.33
2022-07-29T10:21:04.067Z,2.00
2022-07-29T10:24:07.216Z,1.00
2022-07-29T10:27:17.444Z,2.00
2022-07-29T10:30:20.638Z,1.33
2022-07-29T10:33:38.450Z,1.00
2022-07-29T10:36:55.340Z,2.67
2022-07-29T10:40:23.309Z,2.00
2022-07-29T10:43:37.097Z,2.33
2022-07-29T10:46:41.886Z,1.67
2022-07-29T10:49:59.145Z,2.00
2022-07-29T10:53:04.920Z,1.67
2022-07-29T10:56:27.625Z,1.33
2022-07-29T10:59:36.362Z,3.00
2022-07-29T11:02:44.693Z,1.67
2022-07-29T11:05:56.815Z,1.25
2022-07-29T11:09:25.916Z,2.33
2022-07-29T11:12:40.222Z,2.00
2022-07-29T11:15:54.820Z,2.00
2022-07-29T11:19:13.627Z,2.00
2022-07-29T11:22:34.977Z,1.25
2022-07-29T11:25:50.237Z,3.00
2022-07-29T11:28:54.273Z,1.00
2022-07-29T11:35:38.479Z,1.50
2022-07-29T11:38:42.611Z,1.25
2022-07-29T11:41:45.081Z,1.00
2022-07-29T11:45:04.401Z,2.00
2022-07-29T11:48:28.333Z,2.00
2022-07-29T11:51:32.990Z,0.50
2022-07-29T11:55:00.762Z,2.00
2022-07-29T11:58:12.036Z,1.50
2022-07-29T12:01:19.648Z,2.00
2022-07-29T12:04:24.482Z,2.00
2022-07-29T12:07:03.208Z,1.00
2022-07-29T12:07:35.159Z,2.00
2022-07-29T12:10:38.812Z,2.00
2022-07-29T12:13:41.022Z,1.67
2022-07-29T12:16:43.412Z,2.33
2022-07-29T12:19:46.231Z,1.33
2022-07-29T12:22:50.247Z,2.00
2022-07-29T12:25:52.348Z,0.67
2022-07-29T12:28:56.719Z,2.33
2022-07-29T12:31:59.622Z,0.33
2022-07-29T12:35:10.225Z,1.33
2022-07-29T12:38:13.491Z,0.00
2022-07-29T12:41:15.945Z,1.67
2022-07-29T12:44:18.075Z,2.25
2022-07-29T12:47:21.465Z,3.00
2022-07-29T12:50:26.436Z,1.33
2022-07-29T12:53:29.374Z,2.33
2022-07-29T12:56:46.829Z,2.33
2022-07-29T13:00:09.879Z,2.00
2022-07-29T13:03:12.010Z,1.33
2022-07-29T13:06:36.029Z,1.33
2022-07-29T13:09:47.137Z,1.67
2022-07-29T13:13:10.481Z,2.00
2022-07-29T13:16:12.855Z,2.33
2022-07-29T13:19:15.200Z,1.67
2022-07-29T13:22:22.389Z,2.00
2022-07-29T13:25:26.947Z,3.67
2022-07-29T13:28:29.025Z,2.00
2022-07-29T13:31:31.498Z,0.33
2022-07-29T13:34:33.597Z,1.33
2022-07-29T13:37:39.188Z,2.33
2022-07-29T13:40:42.092Z,2.00
2022-07-29T13:43:44.908Z,1.67
2022-07-29T13:46:46.990Z,1.33
2022-07-29T13:49:49.539Z,1.67
2022-07-29T13:52:52.173Z,2.33
2022-07-29T13:55:55.857Z,3.00
2022-07-29T13:58:58.207Z,2.33
2022-07-29T14:02:01.185Z,2.33
2022-07-29T14:05:07.985Z,2.00
2022-07-29T14:08:10.987Z,2.00
2022-07-29T14:11:13.026Z,1.33
2022-07-29T14:14:15.393Z,1.67
2022-07-29T14:17:17.855Z,2.00
2022-07-29T14:20:20.257Z,1.33
2022-07-29T14:23:22.397Z,1.00
2022-07-29T14:26:24.817Z,2.67
2022-07-29T14:29:37.247Z,2.00
2022-07-29T14:32:40.908Z,1.00
2022-07-29T14:35:42.994Z,2.00
2022-07-29T14:38:45.271Z,1.33
2022-07-29T14:41:47.373Z,2.33
2022-07-29T14:44:50.235Z,2.33
2022-07-29T14:47:56.379Z,2.00
2022-07-29T14:51:04.568Z,1.33
2022-07-29T14:54:07.274Z,2.00
2022-07-29T14:57:09.680Z,2.33
2022-07-29T15:00:12.464Z,1.67
2022-07-29T15:03:22.835Z,3.00
2022-07-29T15:06:27.037Z,1.33
2022-07-29T15:09:29.380Z,2.33
2022-07-29T15:12:32.193Z,2.33
2022-07-29T15:15:34.543Z,1.33
2022-07-29T15:18:38.624Z,2.00
2022-07-29T15:21:48.230Z,2.33
2022-07-29T15:24:51.136Z,3.00
2022-07-29T15:27:56.627Z,2.33
2022-07-29T15:31:01.332Z,1.33
2022-07-29T15:34:06.252Z,1.67
2022-07-29T15:37:08.545Z,2.00
2022-07-29T15:40:11.736Z,2.33
2022-07-29T15:43:13.985Z,2.00
2022-07-29T15:46:36.982Z,2.33
2022-07-29T15:49:48.560Z,2.33
2022-07-29T15:52:51.926Z,1.00
2022-07-29T15:55:53.972Z,2.00
2022-07-29T15:58:56.404Z,1.33
2022-07-29T16:01:58.502Z,1.67
2022-07-29T16:05:00.757Z,1.67
2022-07-29T16:08:02.882Z,2.00
2022-07-29T16:11:05.172Z,3.67
2022-07-29T16:14:07.768Z,2.33
2022-07-29T16:17:14.231Z,3.00
2022-07-29T16:20:17.592Z,2.67
2022-07-29T16:23:19.848Z,1.67
2022-07-29T16:26:21.832Z,2.67
2022-07-29T16:29:24.494Z,2.67
2022-07-29T16:32:26.823Z,2.67
2022-07-29T16:35:39.550Z,2.00
2022-07-29T16:38:47.284Z,3.33
2022-07-29T16:41:49.906Z,2.33
2022-07-29T16:44:51.943Z,4.00
2022-07-29T16:47:59.881Z,2.67
2022-07-29T16:51:02.382Z,2.00
2022-07-29T16:54:04.962Z,1.33
2022-07-29T16:57:07.214Z,3.00
2022-07-29T17:00:10.410Z,2.00
2022-07-29T17:03:12.785Z,2.67
2022-07-29T17:06:15.863Z,1.67
2022-07-29T17:09:17.992Z,1.33
2022-07-29T17:12:20.257Z,2.00
2022-07-29T17:15:22.275Z,2.00
2022-07-29T17:18:24.571Z,3.00
2022-07-29T17:21:28.042Z,3.00
2022-07-29T17:24:30.785Z,2.33
2022-07-29T17:27:33.156Z,2.67
2022-07-29T17:30:35.444Z,2.67
2022-07-29T17:33:37.481Z,2.00
2022-07-29T17:36:40.061Z,2.00
2022-07-29T17:39:43.185Z,2.67
2022-07-29T17:42:45.465Z,2.00
2022-07-29T17:45:50.132Z,1.67
2022-07-29T17:48:54.673Z,2.00
2022-07-29T17:52:00.739Z,2.00
2022-07-29T17:55:03.764Z,3.00
2022-07-29T17:58:08.790Z,2.67
2022-07-29T18:01:11.298Z,3.00
2022-07-29T18:04:15.243Z,3.00
2022-07-29T18:07:17.698Z,3.00
2022-07-29T18:10:19.723Z,3.67
2022-07-29T18:13:22.156Z,2.33
2022-07-29T18:16:24.828Z,3.00
2022-07-29T18:19:27.285Z,3.00
2022-07-29T18:22:29.317Z,2.00
2022-07-29T18:25:32.105Z,1.67
2022-07-29T18:28:34.229Z,1.67
2022-07-29T18:31:36.643Z,3.00
2022-07-29T18:34:38.684Z,2.67
2022-07-29T18:38:02.168Z,2.67
2022-07-29T18:41:03.021Z,2.33
2022-07-29T18:44:05.747Z,2.33
2022-07-29T18:47:08.343Z,3.00
2022-07-29T18:50:14.683Z,2.67
2022-07-29T18:53:17.273Z,3.00
2022-07-29T18:56:19.467Z,3.67
2022-07-29T18:59:21.567Z,4.00
2022-07-29T19:02:24.252Z,4.67
2022-07-29T19:05:26.986Z,3.00
2022-07-29T19:08:29.401Z,4.67
2022-07-29T19:11:31.713Z,3.00
2022-07-29T19:14:34.096Z,4.00
2022-07-29T19:17:36.395Z,4.00
2022-07-29T19:20:40.135Z,4.33
2022-07-29T19:24:05.243Z,3.67
2022-07-29T19:27:05.755Z,4.00
2022-07-29T19:30:09.495Z,5.00
2022-07-29T19:33:14.564Z,4.67
2022-07-29T19:36:17.279Z,4.00
2022-07-29T19:39:35.350Z,4.00
2022-07-29T19:42:38.271Z,4.00
2022-07-29T19:45:40.945Z,5.00
2022-07-29T19:48:43.909Z,5.00
2022-07-29T19:51:46.250Z,5.00
2022-07-29T19:54:48.654Z,7.00
2022-07-29T19:57:52.860Z,6.00
2022-07-29T20:00:56.115Z,6.25
2022-07-29T20:04:02.112Z,6.75
2022-07-29T20:07:04.873Z,5.75
2022-07-29T20:10:10.055Z,6.50
2022-07-29T20:13:13.798Z,6.00
2022-07-29T20:16:16.029Z,5.50
2022-07-29T20:19:21.535Z,7.50
2022-07-29T20:22:27.876Z,7.75
2022-07-29T20:25:31.631Z,7.75
2022-07-29T20:28:34.286Z,6.50
2022-07-29T20:31:37.250Z,6.00
2022-07-29T20:34:43.190Z,6.25
2022-07-29T20:37:52.175Z,7.25
2022-07-29T20:41:02.447Z,6.50
2022-07-29T20:44:04.916Z,5.00
2022-07-29T20:47:07.701Z,6.75
2022-07-29T20:50:10.957Z,6.00
2022-07-29T20:53:13.730Z,6.50
2022-07-29T20:56:15.928Z,7.50
2022-07-29T20:59:18.414Z,6.50
2022-07-29T21:02:20.502Z,5.75
2022-07-29T21:05:23.469Z,4.50
2022-07-29T21:08:26.212Z,6.00
2022-07-29T21:11:44.193Z,4.00
2022-07-29T21:14:47.952Z,4.00
2022-07-29T21:17:52.527Z,4.00
2022-07-29T21:20:55.472Z,4.00
2022-07-29T21:23:57.653Z,4.00
2022-07-29T21:27:21.139Z,3.75
2022-07-29T21:30:23.957Z,6.00
2022-07-29T21:33:27.656Z,3.50
2022-07-29T21:39:52.111Z,4.00
2022-07-29T21:42:54.514Z,3.25
2022-07-29T21:45:57.550Z,4.25
2022-07-29T21:49:00.189Z,3.25
2022-07-29T21:52:02.269Z,5.00
2022-07-29T21:55:04.828Z,3.00
2022-07-29T21:58:07.070Z,3.00
2022-07-29T22:01:09.994Z,5.00
2022-07-29T22:04:12.243Z,3.50
2022-07-29T22:07:14.608Z,4.00
2022-07-29T22:10:16.750Z,5.25
2022-07-29T22:13:19.049Z,4.25
2022-07-29T22:16:21.126Z,4.00
2022-07-29T22:19:27.700Z,4.00
2022-07-29T22:22:33.118Z,3.25
2022-07-29T22:25:35.892Z,4.75
2022-07-29T22:28:38.059Z,2.50
2022-07-29T22:31:40.387Z,4.00
2022-07-29T22:34:42.533Z,4.00
2022-07-29T22:37:45.002Z,5.00
2022-07-29T22:40:48.743Z,3.00
2022-07-29T22:43:53.151Z,4.00
2022-07-29T22:46:55.910Z,3.50
2022-07-29T22:49:58.173Z,3.00
2022-07-29T22:53:00.132Z,3.75
2022-07-29T22:56:02.521Z,2.75
2022-07-29T22:59:04.781Z,3.00
2022-07-29T23:02:07.150Z,4.50
2022-07-29T23:05:10.263Z,4.25
2022-07-29T23:08:12.642Z,2.50
2022-07-29T23:11:14.757Z,2.00
2022-07-29T23:14:17.016Z,4.00
2022-07-29T23:17:19.376Z,4.00
2022-07-29T23:20:21.762Z,2.25
2022-07-29T23:23:24.302Z,4.00
2022-07-29T23:26:28.107Z,2.75
2022-07-29T23:29:34.955Z,0.25
2022-07-29T23:32:38.894Z,3.00
2022-07-29T23:35:40.949Z,4.00
2022-07-29T23:38:44.232Z,3.00
2022-07-29T23:41:46.344Z,4.75
2022-07-29T23:44:48.967Z,3.00
2022-07-29T23:47:51.191Z,3.00
2022-07-29T23:50:53.663Z,1.00
2022-07-29T23:53:56.058Z,3.00
2022-07-29T23:56:58.819Z,3.25
